createdAt,value
2019-03-24T10:28:01.285Z,2.40
2019-03-24T10:33:05.104Z,2.93
2019-03-24T10:38:08.393Z,3.00
2019-03-24T10:43:11.557Z,2.53
2019-03-24T10:48:14.657Z,2.80
2019-03-24T10:53:17.827Z,2.53
2019-03-24T10:58:20.991Z,2.00
2019-03-24T11:03:24.137Z,1.80
2019-03-24T11:08:27.690Z,2.03
2019-03-24T11:13:30.794Z,2.83
2019-03-24T11:18:34.276Z,2.77
2019-03-24T11:23:37.721Z,3.00
2019-03-24T11:28:40.794Z,2.57
2019-03-24T11:33:43.974Z,2.97
2019-03-24T11:38:48.962Z,3.03
2019-03-24T11:43:52.236Z,3.23
2019-03-24T11:48:55.435Z,3.03
2019-03-24T11:53:58.832Z,2.40
2019-03-24T11:59:02.220Z,2.33
2019-03-24T12:04:05.512Z,1.90
2019-03-24T12:09:09.025Z,2.00
2019-03-24T12:14:12.123Z,2.03
2019-03-24T12:19:15.711Z,1.83
2019-03-24T12:24:18.821Z,2.50
2019-03-24T12:29:21.962Z,2.67
2019-03-24T12:34:25.070Z,2.23
2019-03-24T12:39:28.412Z,2.57
2019-03-24T12:44:31.558Z,1.90
2019-03-24T12:49:34.653Z,1.93
2019-03-24T12:54:37.807Z,2.37
2019-03-24T12:59:40.914Z,1.87
2019-03-24T13:04:44.516Z,1.80
2019-03-24T13:09:47.614Z,1.77
2019-03-24T13:14:50.731Z,2.37
2019-03-24T13:19:54.990Z,1.80
2019-03-24T13:24:58.163Z,1.70
2019-03-24T13:30:01.294Z,2.37
2019-03-24T13:35:06.486Z,1.67
2019-03-24T13:40:09.629Z,1.50
2019-03-24T13:45:13.138Z,1.57
2019-03-24T13:50:16.565Z,1.60
2019-03-24T13:55:20.961Z,1.67
2019-03-24T14:00:24.465Z,3.27
2019-03-24T14:05:27.583Z,1.97
2019-03-24T14:10:30.666Z,1.47
2019-03-24T14:15:34.791Z,2.17
2019-03-24T14:20:43.401Z,1.83
2019-03-24T14:25:43.174Z,2.07
2019-03-24T14:30:47.792Z,2.23
2019-03-24T14:35:50.913Z,1.67
2019-03-24T14:40:54.411Z,1.50
2019-03-24T14:45:57.600Z,1.27
2019-03-24T14:51:00.717Z,1.40
2019-03-24T14:56:03.829Z,1.20
2019-03-24T15:01:06.926Z,1.90
2019-03-24T15:06:09.993Z,1.40
2019-03-24T15:11:13.198Z,1.83
2019-03-24T15:16:16.306Z,1.27
2019-03-24T15:21:19.881Z,1.20
2019-03-24T15:26:22.985Z,1.10
2019-03-24T15:31:26.078Z,3.80
2019-03-24T15:36:29.482Z,1.10
2019-03-24T15:41:32.642Z,1.27
2019-03-24T15:46:35.883Z,1.30
2019-03-24T15:51:38.968Z,2.63
2019-03-24T15:56:42.161Z,0.90
2019-03-24T16:01:45.279Z,1.33
2019-03-24T16:06:48.959Z,0.97
2019-03-24T16:11:54.687Z,1.10
2019-03-24T16:16:57.796Z,0.90
2019-03-24T16:22:01.257Z,0.93
2019-03-24T16:27:04.441Z,0.90
2019-03-24T16:32:07.550Z,0.90
2019-03-24T16:37:10.654Z,1.00
2019-03-24T16:42:13.734Z,0.80
2019-03-24T16:47:16.908Z,1.20
2019-03-24T16:52:19.995Z,0.93
2019-03-24T16:57:23.279Z,1.00
2019-03-24T17:02:26.499Z,0.97
2019-03-24T17:07:29.642Z,0.90
2019-03-24T17:12:34.429Z,1.50
2019-03-24T17:17:38.340Z,1.57
2019-03-24T17:22:41.440Z,1.40
2019-03-24T17:27:44.602Z,1.57
2019-03-24T17:32:47.718Z,1.73
2019-03-24T17:37:51.997Z,1.30
2019-03-24T17:42:55.166Z,2.40
2019-03-24T17:47:58.449Z,3.60
2019-03-24T17:53:01.535Z,2.97
2019-03-24T17:58:05.334Z,9.90
2019-03-24T18:03:08.519Z,4.00
2019-03-24T18:08:12.017Z,3.87
2019-03-24T18:13:15.513Z,4.30
2019-03-24T18:18:18.680Z,3.23
2019-03-24T18:23:21.774Z,3.20
2019-03-24T18:28:25.032Z,3.10
2019-03-24T18:33:28.709Z,2.60
2019-03-24T18:38:31.800Z,3.00
2019-03-24T18:43:35.273Z,2.87
2019-03-24T18:48:38.385Z,4.30
2019-03-24T18:53:41.661Z,3.47
2019-03-24T18:58:44.777Z,3.10
2019-03-24T19:03:47.913Z,2.90
2019-03-24T19:08:51.082Z,3.83
2019-03-24T19:13:54.185Z,5.93
2019-03-24T19:18:57.303Z,8.93
2019-03-24T19:24:00.437Z,4.37
2019-03-24T19:29:03.626Z,3.33
2019-03-24T19:34:06.740Z,3.50
2019-03-24T19:39:09.853Z,4.77
2019-03-24T19:44:13.131Z,4.77
2019-03-24T19:49:16.332Z,4.23
2019-03-24T19:54:19.415Z,4.07
2019-03-24T19:59:24.103Z,4.33
2019-03-24T20:04:27.303Z,4.13
2019-03-24T20:09:30.918Z,4.10
2019-03-24T20:14:34.131Z,3.83
2019-03-24T20:19:37.232Z,5.27
2019-03-24T20:24:40.736Z,4.93
2019-03-24T20:29:43.858Z,3.80
2019-03-24T20:34:46.969Z,3.70
2019-03-24T20:39:50.196Z,3.60
2019-03-24T20:44:53.306Z,4.30
2019-03-24T20:49:56.480Z,3.93
2019-03-24T20:55:00.022Z,4.07
2019-03-24T21:00:04.712Z,3.70
2019-03-24T21:05:10.917Z,4.50
2019-03-24T21:10:14.495Z,3.37
2019-03-24T21:15:17.725Z,4.20
2019-03-24T21:20:20.864Z,3.77
2019-03-24T21:25:23.981Z,3.67
2019-03-24T21:30:35.221Z,4.00
2019-03-24T21:35:38.845Z,3.83
2019-03-24T21:40:41.991Z,4.10
2019-03-24T21:45:45.129Z,3.67
2019-03-24T21:50:48.263Z,3.27
2019-03-24T21:55:51.684Z,3.13
2019-03-24T22:00:55.644Z,3.23
2019-03-24T22:05:58.744Z,4.00
2019-03-24T22:11:01.958Z,3.77
2019-03-24T22:16:05.060Z,3.57
2019-03-24T22:21:08.134Z,2.60
2019-03-24T22:26:11.358Z,3.10
2019-03-24T22:31:14.513Z,2.20
2019-03-24T22:36:17.635Z,2.30
2019-03-24T22:41:21.856Z,2.87
2019-03-24T22:46:24.977Z,2.63
2019-03-24T22:51:28.870Z,2.60
2019-03-24T22:56:31.998Z,2.53
2019-03-24T23:01:35.269Z,2.33
2019-03-24T23:06:38.531Z,2.20
2019-03-24T23:11:42.007Z,2.30
2019-03-24T23:16:47.135Z,3.03
2019-03-24T23:21:50.257Z,2.60
2019-03-24T23:26:53.399Z,3.00
2019-03-24T23:31:56.534Z,3.33
2019-03-24T23:36:59.642Z,2.87
2019-03-24T23:42:02.783Z,3.70
2019-03-24T23:47:06.383Z,2.87
2019-03-24T23:52:09.824Z,3.10
2019-03-24T23:57:13.330Z,3.53
